Tiempo atmosférico en la estación meteorológica de Velilla del Río Carrión, Camporredondo de Alba, Palencia (1575 m.)



Fecha
DESCASC
Temp. máxima en grados centígrados (hora)
DESCASC
Temp. mínima en grados centígrados (hora)
DESCASC
Temp. media en grados centígrados
DESCASC
Racha de viento máxima en m/sg (hora)
DESCASC
Velocidad máxima media en intervalos de 10 minutos(hora)
DESCASC
Precipitaciones diarias en mm
DESCASC
Precipitaciones de 00:00 a 06:00 en mm
DESCASC
Precipitaciones de 06:00 a 12:00 en mm
DESCASC
Precipitaciones de 12:00 a 18:00 en mm
DESCASC
Precipitaciones de 18:00 a 24:00 en mm
DESCASC
16-06-2019 21.3 (18:10) 6.1 (00:50) 13.7 10.56 (15:50) 6.39 (15:50) 0 0 0 0 0
15-06-2019 17.3 (18:10) 4.2 (07:30) 10.7 8.89 (19:00) 5.28 (22:30) 0.2 0 0.2 0 0
14-06-2019 17.7 (15:40) 3.5 (03:20) 10.6 15.56 (18:10) 10.28 (18:10) 0 0 0 0 0
13-06-2019 16.8 (18:20) 1.9 (00:00) 9.3 15.56 (16:40) 10 (17:00) 0 0 0 0 0
12-06-2019 14.2 (18:30) 0.2 (00:00) 7.2 9.44 (02:40) 7.22 (02:40) 0 0 0 0 0
11-06-2019 10.4 (16:20) 0.6 (00:00) 5.5 12.22 (16:50) 8.61 (16:50) 0 0 0 0 0
10-06-2019 13.4 (14:50) 1 (00:00) 7.2 8.06 (14:20) 5.56 (23:59) 0.6 0 0 0 0.6
09-06-2019 14.8 (16:00) 4.4 (00:00) 9.6 10 (13:10) 6.39 (13:10) 0 0 0 0 0
08-06-2019 16.8 (17:30) 1.1 (00:00) 8.9 14.72 (17:00) 6.94 (17:00) 0 0 0 0 0
07-06-2019 11.1 (17:00) 0.2 (00:00) 5.7 23.33 (03:50) 14.17 (03:20) 0.2 0.2 0 0 0
06-06-2019 11.3 (16:50) 1.1 (00:00) 6.2 27.78 (21:10) 18.61 (20:40) 17.6 0.4 0 0 17.2
05-06-2019 9.9 (16:20) 1.7 (00:00) 5.8 11.94 (16:50) 8.06 (16:50) 6.6 3.8 0 1 1.8
04-06-2019 15.8 (15:00) 5.9 (00:00) 10.9 15.83 (17:40) 10.28 (17:40) 0 0 0 0 0
03-06-2019 22.7 (17:30) 12.4 (00:00) 17.6 16.39 (19:20) 10.56 (19:30) 0 0 0 0 0
02-06-2019 22.3 (15:00) 13 (00:00) 17.6 12.78 (15:30) 8.06 (17:30) 0 0 0 0 0
01-06-2019 25.7 (18:40) 14.1 (00:00) 19.9 11.94 (14:40) 7.22 (14:40) 0 0 0 0 0
31-05-2019 26 (17:30) 11.9 (00:00) 18.9 6.94 (19:50) 5 (02:10) 0 0 0 0 0
30-05-2019 23.2 (17:10) 8 (00:00) 15.6 6.94 (16:30) 3.89 (21:10) 0 0 0 0 0
29-05-2019 20.7 (18:30) 2.3 (00:00) 11.5 9.17 (13:30) 6.39 (13:10) 0 0 0 0 0
28-05-2019 14.1 (16:10) 1.7 (00:00) 7.9 11.67 (15:00) 6.94 (16:50) 0 0 0 0 0
27-05-2019 17.7 (16:10) 5.1 (00:00) 11.4 13.61 (15:00) 8.33 (15:00) 0 0 0 0 0
26-05-2019 22.4 (17:40) 4.2 (00:00) 13.3 9.72 (20:20) 6.67 (20:30) 0 0 0 0 0
25-05-2019 18.9 (17:20) 3.5 (00:00) 11.2 9.44 (18:50) 5.83 (18:40) 0 0 0 0 0
24-05-2019 13 (14:40) 1.4 (00:00) 7.2 10.83 (18:50) 7.78 (14:50) 0 0 0 0 0
23-05-2019 19 (17:10) 6 (00:00) 12.5 12.22 (17:00) 8.61 (18:10) 0 0 0 0 0
22-05-2019 20.1 (16:20) 6.1 (00:00) 13.1 10.83 (16:50) 5.83 (18:50) 0 0 0 0 0

Gráficas

Temp. máximas Temp. mínimas Temp. medias Precipitaciones Rachas de viento máximas Velocidades máximas media en intervalos de 10 minutos

Datos horarios

Fecha y hora oficial Temperatura (ºC) Velocidad del viento (km/h) Dirección del viento Racha (km/h) Dirección de racha Precipitación (mm) Presión (hPa) Tendencia (hPa) Humedad (%)
2019-06-20 23:00:00 -- -- -- -- -- -- -- -- --
2019-06-20 22:00:00 7.6 17 Este 27 Este 0 -- -- 93
2019-06-20 21:00:00 7.9 12 Este 26 Noroeste 3.4 -- -- 88
2019-06-20 20:00:00 8 17 Noroeste 28 Noroeste 0.6 -- -- 90
2019-06-20 19:00:00 9.1 21 Este 34 Este 0.2 -- -- 83
2019-06-20 18:00:00 8.8 20 Este 29 Este 1.8 -- -- 87
2019-06-20 17:00:00 7.8 4 Sudeste 40 Sur 6 -- -- 86
2019-06-20 16:00:00 14.7 11 Sudoeste 26 Sur 0 -- -- 66
2019-06-20 15:00:00 13.5 11 Este 18 Este 0 -- -- 74
2019-06-20 14:00:00 15.3 6 Oeste 28 Sudoeste 0 -- -- 64
2019-06-20 13:00:00 13.7 12 Sudoeste 25 Sudoeste 0 -- -- 72
2019-06-20 12:00:00 12.8 7 Sur 22 Este 0 -- -- 72
2019-06-20 11:00:00 12.3 7 Sudeste 14 Sudeste 0 -- -- 77
2019-06-20 10:00:00 11.8 5 Sudeste 14 Este 0 -- -- 83
2019-06-20 09:00:00 9.8 9 Este 14 Este 0 -- -- 96
2019-06-20 08:00:00 8 10 Este 12 Este 0 -- -- 98
2019-06-20 07:00:00 7.8 4 Este 9 Este 0 -- -- 97
2019-06-20 06:00:00 8.1 7 Este 15 Este 0 -- -- 98
2019-06-20 05:00:00 8.3 10 Este 15 Este 0 -- -- 98
2019-06-20 04:00:00 8.4 6 Este 15 Este 0 -- -- 97
2019-06-20 03:00:00 8.8 4 Este 6 Este 0 -- -- 97
2019-06-20 02:00:00 8.8 0 Calma 8 Noroeste 0 -- -- 97
2019-06-20 01:00:00 9.3 5 Noroeste 11 Oeste 0 -- -- 96
2019-06-20 00:00:00 9.7 11 Oeste 14 Oeste 0 -- -- 94
2019-06-19 23:00:00 10.2 8 Sudoeste 18 Noroeste 0 -- -- 91
2019-06-19 22:00:00 12.1 9 Oeste 28 Oeste 0 -- -- 79
2019-06-19 21:00:00 13.7 19 Oeste 40 Oeste 0 -- -- 65
2019-06-19 20:00:00 14.5 26 Oeste 40 Sudoeste 0 -- -- 62
2019-06-19 19:00:00 14.8 19 Oeste 38 Oeste 0 -- -- 64
2019-06-19 18:00:00 15.9 17 Oeste 33 Oeste 0 -- -- 62
2019-06-19 17:00:00 15.6 15 Oeste 32 Oeste 0 -- -- 67
2019-06-19 16:00:00 14.5 18 Oeste 40 Oeste 0 -- -- 69
2019-06-19 15:00:00 13.8 21 Oeste 35 Sudoeste 0 -- -- 72
2019-06-19 14:00:00 13.7 21 Oeste 42 Sudoeste 0 -- -- 73
2019-06-19 13:00:00 12.5 21 Oeste 36 Oeste 0 -- -- 77
2019-06-19 12:00:00 11.9 21 Oeste 35 Oeste 0 -- -- 86
2019-06-19 11:00:00 10.4 19 Oeste 28 Oeste 0 -- -- 96
2019-06-19 10:00:00 10.3 17 Oeste 28 Oeste 0 -- -- 96
2019-06-19 09:00:00 9.7 18 Oeste 36 Oeste 0.2 -- -- 98
2019-06-19 08:00:00 9.5 16 Oeste 41 Oeste 0 -- -- 98
2019-06-19 07:00:00 9.2 26 Oeste 42 Oeste 0 -- -- 98
2019-06-19 06:00:00 9.1 26 Oeste 46 Oeste 0 -- -- 98
2019-06-19 05:00:00 9.3 27 Oeste 53 Oeste 0 -- -- 97
2019-06-19 04:00:00 9.5 31 Oeste 54 Oeste 0 -- -- 96
2019-06-19 03:00:00 9.6 31 Oeste 55 Oeste 0 -- -- 96
2019-06-19 02:00:00 9.7 34 Oeste 77 Oeste 0.2 -- -- 96
2019-06-19 01:00:00 10.6 40 Oeste 62 Noroeste 0 -- -- 89
2019-06-19 00:00:00 10.8 34 Oeste 56 Oeste 0 -- -- 87
2019-06-18 23:00:00 10.7 30 Oeste 52 Oeste 0 -- -- 86
2019-06-18 22:00:00 11.4 32 Oeste 60 Oeste 0 -- -- 82
2019-06-18 21:00:00 13.3 39 Oeste 68 Oeste 0 -- -- 67
2019-06-18 20:00:00 14.5 43 Oeste 90 Oeste 0 -- -- 57
2019-06-18 19:00:00 14.7 45 Oeste 75 Oeste 0 -- -- 64
2019-06-18 18:00:00 15.6 35 Oeste 66 Oeste 0 -- -- 59
2019-06-18 17:00:00 16.8 34 Oeste 68 Oeste 0 -- -- 50
2019-06-18 16:00:00 19.4 39 Sudoeste 76 Oeste 0 -- -- 37
2019-06-18 15:00:00 19.4 38 Oeste 75 Sudoeste 0 -- -- 34
2019-06-18 14:00:00 19.2 32 Sudoeste 68 Oeste 0 -- -- 31
2019-06-18 13:00:00 17.8 39 Oeste 70 Oeste 0 -- -- 24
2019-06-18 12:00:00 16.7 39 Oeste 71 Oeste 0 -- -- 28
2019-06-18 11:00:00 15.9 41 Oeste 67 Oeste 0 -- -- 41
2019-06-18 10:00:00 15.2 22 Oeste 57 Sudoeste 0 -- -- 43
2019-06-18 09:00:00 14.9 24 Oeste 38 Sudoeste 0 -- -- 42
2019-06-18 08:00:00 14.4 20 Sudoeste 31 Oeste 0 -- -- 41
2019-06-18 07:00:00 13.4 21 Oeste 36 Oeste 0 -- -- 40
2019-06-18 06:00:00 13.8 18 Oeste 36 Oeste 0 -- -- 39
2019-06-18 05:00:00 14 13 Sudoeste 20 Oeste 0 -- -- 39
2019-06-18 04:00:00 13 8 Noroeste 17 Oeste 0 -- -- 41
2019-06-18 03:00:00 13.7 14 Oeste 27 Oeste 0 -- -- 40
2019-06-18 02:00:00 12.3 17 Oeste 32 Oeste 0 -- -- 45
2019-06-18 01:00:00 13.7 15 Oeste 60 Oeste 0 -- -- 41
2019-06-18 00:00:00 14.6 33 Oeste 53 Sudoeste 0 -- -- 39
2019-06-17 23:00:00 15 30 Oeste 45 Oeste 0 -- -- 36
2019-06-17 22:00:00 15.2 11 Oeste 48 Oeste 0 -- -- 38
2019-06-17 21:00:00 16.4 20 Oeste 40 Oeste 0 -- -- 36
2019-06-17 20:00:00 17.4 10 Oeste 41 Oeste 0 -- -- 38
2019-06-17 19:00:00 18 29 Oeste 44 Oeste 0 -- -- 38
2019-06-17 18:00:00 19 19 Oeste 37 Oeste 0 -- -- 36
2019-06-17 17:00:00 18.8 20 Oeste 53 Oeste 0 -- -- 34
2019-06-17 16:00:00 21 21 Oeste 57 Sudoeste 0 -- -- 30
2019-06-17 15:00:00 21.1 28 Sudoeste 57 Oeste 0 -- -- 32
2019-06-17 14:00:00 19.7 31 Sudoeste 49 Oeste 0 -- -- 37
2019-06-17 13:00:00 19.4 24 Sudoeste 52 Oeste 0 -- -- 40
2019-06-17 12:00:00 18.3 21 Sudoeste 39 Oeste 0 -- -- 46
2019-06-17 11:00:00 17.4 18 Sudoeste 29 Sudoeste 0 -- -- 42
2019-06-17 10:00:00 17.3 6 Oeste 11 Oeste 0 -- -- 44
2019-06-17 09:00:00 16.6 7 Oeste 11 Noroeste 0 -- -- 40
2019-06-17 08:00:00 17 0 Calma 4 Oeste 0 -- -- 41
2019-06-17 07:00:00 12.8 0 Calma 3 Oeste 0 -- -- 62
2019-06-17 06:00:00 11.6 0 Calma 4 Este 0 -- -- 69
2019-06-17 05:00:00 11.9 3 Este 6 Este 0 -- -- 67
2019-06-17 04:00:00 12.2 6 Este 12 Este 0 -- -- 67
2019-06-17 03:00:00 10.7 9 Este 15 Este 0 -- -- 70
2019-06-17 02:00:00 11.4 14 Este 17 Este 0 -- -- 73
2019-06-17 01:00:00 10.6 14 Este 23 Este 0 -- -- 75
2019-06-17 00:00:00 10.9 16 Este 20 Este 0 -- -- 71
2019-06-16 23:00:00 11.9 10 Este 12 Nordeste 0 -- -- 65
2019-06-16 22:00:00 16.1 5 Oeste 10 Sudoeste 0 -- -- 35
2019-06-16 21:00:00 16.5 8 Sudoeste 26 Sudoeste 0 -- -- 37
2019-06-16 20:00:00 17.9 15 Sudoeste 27 Sudoeste 0 -- -- 34
2019-06-16 19:00:00 20.4 14 Sudoeste 37 Oeste 0 -- -- 32
2019-06-16 18:00:00 21.2 14 Sudoeste 33 Oeste 0 -- -- 30
2019-06-16 17:00:00 19.9 19 Oeste 34 Sudoeste 0 -- -- 31
2019-06-16 16:00:00 20.2 14 Oeste 38 Oeste 0 -- -- 35
2019-06-16 15:00:00 19.9 15 Oeste 27 Oeste 0 -- -- 38
2019-06-16 14:00:00 18.8 17 Oeste 31 Oeste 0 -- -- 43
2019-06-16 13:00:00 17.3 10 Oeste 23 Oeste 0 -- -- 42
2019-06-16 12:00:00 16.3 9 Sudoeste 21 Sudoeste 0 -- -- 50
2019-06-16 11:00:00 14.6 9 Sudoeste 17 Oeste 0 -- -- 47
2019-06-16 10:00:00 14.8 2 Oeste 13 Sudoeste 0 -- -- 51
2019-06-16 09:00:00 12 6 Sudoeste 9 Sudoeste 0 -- -- 57
2019-06-16 08:00:00 10.8 5 Sur 6 Sur 0 -- -- 59
2019-06-16 07:00:00 9 0 Calma 6 Noroeste 0 -- -- 66
2019-06-16 06:00:00 7.7 2 Oeste 2 Noroeste 0 -- -- 78
2019-06-16 05:00:00 8.2 0 Calma 4 Sudoeste 0 -- -- 73
2019-06-16 04:00:00 7.8 0 Calma 8 Este 0 -- -- 79
2019-06-16 03:00:00 6.1 8 Este 12 Este 0 -- -- 92
2019-06-16 02:00:00 7.2 10 Este 11 Este 0 -- -- 87
2019-06-16 01:00:00 6.4 10 Este 14 Este 0 -- -- 94
2019-06-16 00:00:00 6.5 10 Este 15 Este 0 -- -- 91
2019-06-15 23:00:00 7.3 12 Este 23 Este 0 -- -- 89
2019-06-15 22:00:00 9 6 Nordeste 13 Nordeste 0 -- -- 80
2019-06-15 21:00:00 13.8 10 Oeste 24 Oeste 0 -- -- 49
2019-06-15 20:00:00 14.9 15 Oeste 31 Oeste 0 -- -- 46
2019-06-15 19:00:00 15.9 18 Oeste 32 Oeste 0 -- -- 42
2019-06-15 18:00:00 16.5 12 Oeste 29 Sudoeste 0 -- -- 45
2019-06-15 17:00:00 14.3 18 Oeste 32 Oeste 0 -- -- 46
2019-06-15 16:00:00 13.3 15 Oeste 30 Oeste 0 -- -- 51
2019-06-15 15:00:00 12.5 13 Sudoeste 21 Sudoeste 0 -- -- 57
2019-06-15 14:00:00 11.4 6 Sudoeste 15 Sudoeste 0 -- -- 65
2019-06-15 13:00:00 9.7 13 Sudoeste 23 Sudoeste 0 -- -- 68
2019-06-15 12:00:00 9.2 9 Oeste 23 Oeste 0 -- -- 66
2019-06-15 11:00:00 8.4 6 Sudoeste 18 Oeste 0 -- -- 84
2019-06-15 10:00:00 7.9 8 Oeste 12 Oeste 0 -- -- 88
2019-06-15 09:00:00 5 8 Oeste 14 Oeste 0 -- -- 97
2019-06-15 08:00:00 4.9 4 Noroeste 9 Noroeste 0 -- -- 96
2019-06-15 07:00:00 4.4 7 Oeste 13 Noroeste 0.2 -- -- 96
2019-06-15 06:00:00 4.6 12 Noroeste 18 Oeste 0 -- -- 94
2019-06-15 05:00:00 4.9 6 Noroeste 12 Oeste 0 -- -- 94
2019-06-15 04:00:00 5.1 8 Oeste 13 Oeste 0 -- -- 92
2019-06-15 03:00:00 5.3 4 Noroeste 12 Noroeste 0 -- -- 93
2019-06-15 02:00:00 5.2 3 Sudoeste 8 Norte 0 -- -- 94
2019-06-15 01:00:00 5.8 4 Oeste 12 Oeste 0 -- -- 93
2019-06-15 00:00:00 6.4 8 Oeste 13 Oeste 0 -- -- 92
2019-06-14 23:00:00 6.7 6 Noroeste 11 Nordeste 0 -- -- 92
2019-06-14 22:00:00 6.7 12 Nordeste 18 Nordeste 0 -- -- 90
2019-06-14 21:00:00 8.6 9 Norte 27 Este 0 -- -- 82
2019-06-14 20:00:00 10.6 16 Nordeste 24 Nordeste 0 -- -- 74
2019-06-14 19:00:00 13.7 14 Oeste 56 Oeste 0 -- -- 43
2019-06-14 18:00:00 17.6 23 Oeste 44 Oeste 0 -- -- 29
2019-06-14 17:00:00 15.8 25 Oeste 47 Sudoeste 0 -- -- 37
2019-06-14 16:00:00 14.6 22 Sudoeste 41 Sudoeste 0 -- -- 42
2019-06-14 15:00:00 17.3 20 Sudoeste 39 Oeste 0 -- -- 40
2019-06-14 14:00:00 16.9 22 Sudoeste 42 Sudoeste 0 -- -- 41
2019-06-14 13:00:00 14.6 24 Oeste 42 Sudoeste 0 -- -- 39
2019-06-14 12:00:00 15 14 Sudoeste 32 Sudoeste 0 -- -- 45
2019-06-14 11:00:00 13.3 9 Oeste 18 Oeste 0 -- -- 47
2019-06-14 10:00:00 14.7 3 Oeste 9 Sudoeste 0 -- -- 47
2019-06-14 09:00:00 14.3 4 Norte 6 Norte 0 -- -- 47
2019-06-14 08:00:00 12.5 0 Calma 4 Norte 0 -- -- 52
2019-06-14 07:00:00 8.2 0 Calma 3 Norte 0 -- -- 56
2019-06-14 06:00:00 7.2 0 Calma 3 Sudeste 0 -- -- 57
2019-06-14 05:00:00 6.3 0 Calma 9 Este 0 -- -- 71
2019-06-14 04:00:00 3.6 8 Este 11 Este 0 -- -- 92
2019-06-14 03:00:00 4.2 12 Este 15 Este 0 -- -- 91
2019-06-14 02:00:00 4.3 10 Este 13 Este 0 -- -- 88
2019-06-14 01:00:00 5.1 10 Este 12 Este 0 -- -- 83
2019-06-14 00:00:00 5.2 3 Nordeste 10 Noroeste 0 -- -- 86
2019-06-13 23:00:00 6.3 9 Noroeste 14 Noroeste 0 -- -- 79
2019-06-13 22:00:00 10.5 14 Noroeste 30 Oeste 0 -- -- 47
2019-06-13 21:00:00 13.3 20 Oeste 35 Oeste 0 -- -- 36
2019-06-13 20:00:00 14.1 18 Sudoeste 48 Oeste 0 -- -- 35
2019-06-13 19:00:00 15.6 26 Oeste 47 Oeste 0 -- -- 33
2019-06-13 18:00:00 16.5 24 Oeste 54 Oeste 0 -- -- 32
2019-06-13 17:00:00 15.6 36 Oeste 56 Sudoeste 0 -- -- 31
2019-06-13 16:00:00 15.5 27 Oeste 54 Oeste 0 -- -- 34
2019-06-13 15:00:00 15.4 25 Sudoeste 50 Oeste 0 -- -- 38
2019-06-13 14:00:00 12.4 26 Sudoeste 37 Sudoeste 0 -- -- 50
2019-06-13 13:00:00 13.6 16 Oeste 35 Sudoeste 0 -- -- 48
2019-06-13 12:00:00 13 15 Oeste 34 Oeste 0 -- -- 51
2019-06-13 11:00:00 11.1 8 Este 20 Este 0 -- -- 63
2019-06-13 10:00:00 8.5 11 Este 16 Este 0 -- -- 75
2019-06-13 09:00:00 7.3 6 Este 12 Este 0 -- -- 77
2019-06-13 08:00:00 4 10 Este 13 Este 0 -- -- 89
2019-06-13 07:00:00 2.9 8 Este 13 Este 0 -- -- 90
2019-06-13 06:00:00 1.9 11 Este 15 Este 0 -- -- 93
2019-06-13 05:00:00 3.2 10 Este 16 Este 0 -- -- 94
2019-06-13 04:00:00 3 15 Este 18 Este 0 -- -- 97
2019-06-13 03:00:00 3 17 Este 23 Este 0 -- -- 98
2019-06-13 02:00:00 2.5 17 Este 30 Este 0 -- -- 97
2019-06-13 01:00:00 3 21 Este 30 Este 0 -- -- 97
2019-06-13 00:00:00 3.6 22 Este 28 Este 0 -- -- 95
2019-06-12 23:00:00 4.6 19 Este 30 Este 0 -- -- 90
2019-06-12 22:00:00 6 17 Este 24 Este 0 -- -- 82
2019-06-12 21:00:00 10 11 Oeste 26 Oeste 0 -- -- 47
2019-06-12 20:00:00 12 14 Sudoeste 30 Sudoeste 0 -- -- 38
2019-06-12 19:00:00 11.9 16 Oeste 26 Oeste 0 -- -- 44
2019-06-12 18:00:00 11.5 9 Sudoeste 20 Sudoeste 0 -- -- 47
2019-06-12 17:00:00 10.2 3 Sur 14 Oeste 0 -- -- 54
2019-06-12 16:00:00 11 7 Noroeste 18 Noroeste 0 -- -- 52
2019-06-12 15:00:00 7.7 5 Sudoeste 12 Sudoeste 0 -- -- 61
2019-06-12 14:00:00 7.8 7 Sudoeste 14 Sudoeste 0 -- -- 54
2019-06-12 13:00:00 7.1 8 Oeste 20 Oeste 0 -- -- 59
2019-06-12 12:00:00 6.8 6 Sudoeste 17 Oeste 0 -- -- 62
2019-06-12 11:00:00 6.8 8 Oeste 21 Oeste 0 -- -- 61
2019-06-12 10:00:00 3.9 13 Oeste 26 Oeste 0 -- -- 66
2019-06-12 09:00:00 2.4 11 Oeste 27 Oeste 0 -- -- 75
2019-06-12 08:00:00 0.7 17 Oeste 24 Noroeste 0 -- -- 81
2019-06-12 07:00:00 0.2 17 Oeste 26 Oeste 0 -- -- 79
2019-06-12 06:00:00 0.2 17 Oeste 27 Oeste 0 -- -- 80
2019-06-12 05:00:00 0.7 17 Noroeste 28 Noroeste 0 -- -- 72
2019-06-12 04:00:00 0.4 13 Noroeste 25 Oeste 0 -- -- 84
2019-06-12 03:00:00 0.4 16 Noroeste 34 Noroeste 0 -- -- 89
2019-06-12 02:00:00 1.1 23 Noroeste 31 Noroeste 0 -- -- 82
2019-06-12 01:00:00 1.5 16 Oeste 27 Noroeste 0 -- -- 79
2019-06-12 00:00:00 1.7 17 Noroeste 32 Noroeste 0 -- -- 77
2019-06-11 23:00:00 2 17 Noroeste 29 Noroeste 0 -- -- 83
2019-06-11 22:00:00 2.9 10 Oeste 30 Noroeste 0 -- -- 83
2019-06-11 21:00:00 5.3 16 Oeste 26 Oeste 0 -- -- 68
2019-06-11 20:00:00 6.7 13 Noroeste 37 Norte 0 -- -- 63
2019-06-11 19:00:00 7.3 18 Norte 31 Norte 0 -- -- 67
2019-06-11 18:00:00 7.3 16 Oeste 37 Oeste 0 -- -- 68
2019-06-11 17:00:00 6.3 26 Oeste 44 Oeste 0 -- -- 68
2019-06-11 16:00:00 9.7 17 Norte 37 Norte 0 -- -- 52
2019-06-11 15:00:00 9 19 Noroeste 41 Noroeste 0 -- -- 52
2019-06-11 14:00:00 7.3 13 Norte 32 Oeste 0 -- -- 59
2019-06-11 13:00:00 5.7 23 Oeste 33 Oeste 0 -- -- 73
2019-06-11 12:00:00 7 15 Norte 34 Noroeste 0 -- -- 56
2019-06-11 11:00:00 5.6 13 Oeste 31 Oeste 0 -- -- 73
2019-06-11 10:00:00 6.5 8 Noroeste 27 Norte 0 -- -- 69
2019-06-11 09:00:00 2.1 10 Noroeste 25 Noroeste 0 -- -- 85
2019-06-11 08:00:00 1.7 13 Noroeste 27 Noroeste 0 -- -- 93
2019-06-11 07:00:00 0.8 14 Oeste 22 Oeste 0 -- -- 97
2019-06-11 06:00:00 1 16 Noroeste 22 Noroeste 0 -- -- 96
2019-06-11 05:00:00 1.4 13 Noroeste 40 Norte 0 -- -- 91
2019-06-11 04:00:00 2 5 Noroeste 28 Noroeste 0 -- -- 87
2019-06-11 03:00:00 2.3 9 Noroeste 21 Noroeste 0 -- -- 88
2019-06-11 02:00:00 2.9 14 Noroeste 29 Noroeste 0 -- -- 88
2019-06-11 01:00:00 2.8 22 Noroeste 33 Norte 0 -- -- 93
2019-06-11 00:00:00 3.4 20 Noroeste 26 Noroeste 0 -- -- 96
2019-06-10 23:00:00 3.8 10 Oeste 21 Noroeste 0.2 -- -- 97
2019-06-10 22:00:00 4.6 10 Oeste 19 Noroeste 0.4 -- -- 96
2019-06-10 21:00:00 5.7 6 Noroeste 11 Oeste 0 -- -- 94
2019-06-10 20:00:00 5.6 8 Este 23 Sudeste 0 -- -- 93
2019-06-10 19:00:00 6 17 Este 23 Este 0 -- -- 89
2019-06-10 18:00:00 8.2 5 Sur 19 Este 0 -- -- 77
2019-06-10 17:00:00 9.1 7 Sur 27 Sudoeste 0 -- -- 70
2019-06-10 16:00:00 11.4 6 Sudoeste 21 Sudoeste 0 -- -- 64
2019-06-10 15:00:00 13.2 6 Sur 29 Oeste 0 -- -- 56
2019-06-10 14:00:00 11.5 10 Sudoeste 24 Oeste 0 -- -- 54
2019-06-10 13:00:00 11.3 5 Oeste 28 Noroeste 0 -- -- 61
2019-06-10 12:00:00 9.6 5 Sudoeste 13 Oeste 0 -- -- 62
2019-06-10 11:00:00 9.4 5 Oeste 10 Sudoeste 0 -- -- 62
2019-06-10 10:00:00 5.7 0 Calma 7 Noroeste 0 -- -- 81
2019-06-10 09:00:00 4.6 0 Calma 7 Noroeste 0 -- -- 89
2019-06-10 08:00:00 3.6 2 Noroeste 12 Norte 0 -- -- 93
2019-06-10 07:00:00 1.3 8 Noroeste 12 Noroeste 0 -- -- 97
2019-06-10 06:00:00 1.3 4 Noroeste 13 Noroeste 0 -- -- 94
2019-06-10 05:00:00 2.3 3 Oeste 8 Noroeste 0 -- -- 95
2019-06-10 04:00:00 2.8 4 Oeste 8 Oeste 0 -- -- 94
2019-06-10 03:00:00 3.3 4 Oeste 8 Noroeste 0 -- -- 92
2019-06-10 02:00:00 3.9 4 Oeste 5 Oeste 0 -- -- 95
2019-06-10 01:00:00 4.3 2 Sudeste 24 Este 0 -- -- 92
2019-06-10 00:00:00 4.4 19 Este 23 Este 0 -- -- 92
2019-06-09 23:00:00 5.7 9 Oeste 18 Oeste 0 -- -- 87
2019-06-09 22:00:00 6.8 7 Noroeste 17 Este 0 -- -- 79
2019-06-09 21:00:00 7 14 Este 27 Este 0 -- -- 82
2019-06-09 20:00:00 9.2 8 Norte 18 Este 0 -- -- 75
2019-06-09 19:00:00 9 13 Este 24 Este 0 -- -- 80
2019-06-09 18:00:00 12.2 14 Este 23 Este 0 -- -- 68
2019-06-09 17:00:00 11.5 10 Sudeste 28 Sudeste 0 -- -- 71
2019-06-09 16:00:00 14.8 9 Noroeste 26 Noroeste 0 -- -- 53
2019-06-09 15:00:00 13.6 9 Sudoeste 32 Sudoeste 0 -- -- 57
2019-06-09 14:00:00 13.4 18 Oeste 36 Oeste 0 -- -- 53
2019-06-09 13:00:00 13.5 18 Oeste 36 Oeste 0 -- -- 53
2019-06-09 12:00:00 12.6 15 Oeste 31 Sudoeste 0 -- -- 62
2019-06-09 11:00:00 11.3 15 Oeste 22 Noroeste 0 -- -- 71
2019-06-09 10:00:00 12.3 2 Oeste 10 Noroeste 0 -- -- 70
2019-06-09 09:00:00 9.1 3 Oeste 8 Noroeste 0 -- -- 91
2019-06-09 08:00:00 5.8 0 Calma 9 Este 0 -- -- 98
2019-06-09 07:00:00 5.1 8 Este 12 Este 0 -- -- 97
2019-06-09 06:00:00 4.9 9 Este 19 Este 0 -- -- 97
2019-06-09 05:00:00 5.2 13 Este 18 Este 0 -- -- 94
2019-06-09 04:00:00 5.2 11 Este 20 Este 0 -- -- 92
2019-06-09 03:00:00 7.1 17 Este 19 Este 0 -- -- 84
2019-06-09 02:00:00 5.9 13 Este 15 Este 0 -- -- 89
2019-06-09 01:00:00 5.6 10 Este 13 Este 0 -- -- 92
2019-06-09 00:00:00 6 6 Este 15 Este 0 -- -- 91
2019-06-08 23:00:00 6.2 14 Este 27 Este 0 -- -- 91
2019-06-08 22:00:00 7.3 24 Este 31 Este 0 -- -- 85
2019-06-08 21:00:00 8.5 21 Este 32 Este 0 -- -- 81
2019-06-08 20:00:00 12.5 8 Sudeste 33 Oeste 0 -- -- 62
2019-06-08 19:00:00 14.7 18 Oeste 37 Oeste 0 -- -- 38
2019-06-08 18:00:00 16.1 23 Oeste 43 Oeste 0 -- -- 36
2019-06-08 17:00:00 15.1 25 Sudoeste 53 Oeste 0 -- -- 37
2019-06-08 16:00:00 14.4 17 Sudoeste 30 Sudoeste 0 -- -- 42
2019-06-08 15:00:00 12.2 14 Sudoeste 35 Oeste 0 -- -- 49
2019-06-08 14:00:00 12.3 15 Sudoeste 32 Sudoeste 0 -- -- 49
2019-06-08 13:00:00 13 13 Oeste 27 Sudoeste 0 -- -- 52
2019-06-08 12:00:00 10.9 12 Sudoeste 26 Sudoeste 0 -- -- 54
2019-06-08 11:00:00 7.7 15 Este 22 Este 0 -- -- 74
2019-06-08 10:00:00 5.1 12 Este 23 Este 0 -- -- 82
2019-06-08 09:00:00 3.3 17 Este 23 Este 0 -- -- 96
2019-06-08 08:00:00 1.6 13 Este 17 Este 0 -- -- 97
2019-06-08 07:00:00 1.4 13 Este 17 Este 0 -- -- 97
2019-06-08 06:00:00 1.5 15 Este 17 Este 0 -- -- 97
2019-06-08 05:00:00 1.6 12 Este 17 Este 0 -- -- 96
2019-06-08 04:00:00 1.7 13 Este 15 Este 0 -- -- 96
2019-06-08 03:00:00 2 6 Este 8 Este 0 -- -- 91
2019-06-08 02:00:00 2.8 3 Este 5 Este 0 -- -- 86
2019-06-08 01:00:00 3.4 0 Calma 6 Este 0 -- -- 82
2019-06-08 00:00:00 4.4 4 Este 16 Oeste 0 -- -- 71
2019-06-07 23:00:00 5.5 13 Oeste 20 Oeste 0 -- -- 64
2019-06-07 22:00:00 5.5 13 Oeste 33 Oeste 0 -- -- 64
2019-06-07 21:00:00 8.3 15 Oeste 36 Oeste 0 -- -- 56
2019-06-07 20:00:00 7.7 28 Oeste 53 Oeste 0 -- -- 57
2019-06-07 19:00:00 8.5 27 Oeste 49 Oeste 0 -- -- 54
2019-06-07 18:00:00 10 29 Oeste 59 Oeste 0 -- -- 52
2019-06-07 17:00:00 11.1 33 Oeste 52 Oeste 0 -- -- 48
2019-06-07 16:00:00 9.8 29 Oeste 48 Oeste 0 -- -- 48
2019-06-07 15:00:00 9.8 33 Oeste 52 Oeste 0 -- -- 40
2019-06-07 14:00:00 9.2 25 Oeste 41 Oeste 0 -- -- 57
2019-06-07 13:00:00 7.8 21 Oeste 44 Sudoeste 0 -- -- 61
2019-06-07 12:00:00 5.9 22 Oeste 40 Oeste 0 -- -- 67
2019-06-07 11:00:00 4.3 24 Oeste 45 Oeste 0 -- -- 73
2019-06-07 10:00:00 2.7 27 Oeste 49 Oeste 0 -- -- 83
2019-06-07 09:00:00 0.9 34 Oeste 51 Oeste 0 -- -- 91
2019-06-07 08:00:00 0.9 39 Oeste 62 Oeste 0 -- -- 92
2019-06-07 07:00:00 0.3 34 Oeste 57 Oeste 0 -- -- 95
2019-06-07 06:00:00 0.7 37 Oeste 56 Oeste 0.2 -- -- 97
2019-06-07 05:00:00 0.9 32 Oeste 73 Oeste 0 -- -- 96
2019-06-07 04:00:00 1.4 51 Oeste 84 Oeste 0 -- -- 90
2019-06-07 03:00:00 1.8 48 Oeste 72 Oeste 0 -- -- 91
2019-06-07 02:00:00 1.8 37 Oeste 66 Oeste 0 -- -- 95
2019-06-07 01:00:00 2.4 41 Oeste 70 Oeste 0 -- -- 94
2019-06-07 00:00:00 3 32 Oeste 64 Sudoeste 0.4 -- -- 96
2019-06-06 23:00:00 3.8 40 Oeste 98 Oeste 3.8 -- -- 94
2019-06-06 22:00:00 6.2 51 Oeste 100 Oeste 4 -- -- 96
2019-06-06 21:00:00 6.2 57 Oeste 96 Oeste 5.6 -- -- 94
2019-06-06 20:00:00 6.3 53 Oeste 86 Oeste 3.4 -- -- 93
2019-06-06 19:00:00 8.2 46 Oeste 77 Oeste 0 -- -- 69
2019-06-06 18:00:00 9.9 41 Oeste 80 Oeste 0 -- -- 56
2019-06-06 17:00:00 10.7 50 Oeste 74 Sudoeste 0 -- -- 52
2019-06-06 16:00:00 10.4 42 Oeste 70 Oeste 0 -- -- 53
2019-06-06 15:00:00 10 32 Oeste 64 Oeste 0 -- -- 54
2019-06-06 14:00:00 8.2 37 Oeste 60 Oeste 0 -- -- 57
2019-06-06 13:00:00 8 29 Oeste 50 Oeste 0 -- -- 63
2019-06-06 12:00:00 6.3 21 Oeste 43 Sudoeste 0 -- -- 72
2019-06-06 11:00:00 5.7 19 Sudoeste 33 Oeste 0 -- -- 75
2019-06-06 10:00:00 4.5 13 Sudoeste 27 Oeste 0 -- -- 83
2019-06-06 09:00:00 3.5 5 Sudoeste 10 Sudoeste 0 -- -- 86
2019-06-06 08:00:00 1.7 7 Oeste 10 Oeste 0 -- -- 93
2019-06-06 07:00:00 1.2 8 Oeste 12 Oeste 0 -- -- 95
2019-06-06 06:00:00 1.3 9 Sudoeste 14 Sudoeste 0.2 -- -- 96
2019-06-06 05:00:00 1.5 8 Sudoeste 17 Sudoeste 0 -- -- 96
2019-06-06 04:00:00 1.5 8 Sudoeste 17 Oeste 0 -- -- 97
2019-06-06 03:00:00 2.1 3 Oeste 10 Sudoeste 0 -- -- 96
2019-06-06 02:00:00 2.3 3 Sur 8 Sur 0 -- -- 96
2019-06-06 01:00:00 2.7 3 Oeste 12 Sudoeste 0.2 -- -- 95
2019-06-06 00:00:00 2.5 9 Sudoeste 17 Oeste 1.6 -- -- 95
2019-06-05 23:00:00 3 9 Oeste 26 Noroeste 0 -- -- 91
2019-06-05 22:00:00 3.4 8 Oeste 19 Oeste 0 -- -- 90
2019-06-05 21:00:00 3.9 12 Oeste 20 Oeste 0 -- -- 90
2019-06-05 20:00:00 5.6 10 Oeste 35 Noroeste 0.2 -- -- 86
2019-06-05 19:00:00 5.9 13 Oeste 25 Oeste 0 -- -- 83
2019-06-05 18:00:00 5.7 11 Oeste 20 Oeste 0.6 -- -- 91
2019-06-05 17:00:00 4.3 18 Noroeste 43 Noroeste 0.4 -- -- 90
2019-06-05 16:00:00 7.6 12 Oeste 40 Oeste 0 -- -- 73
2019-06-05 15:00:00 7.8 21 Noroeste 37 Oeste 0 -- -- 63
2019-06-05 14:00:00 7.3 23 Noroeste 36 Noroeste 0 -- -- 64
2019-06-05 13:00:00 6.8 26 Noroeste 42 Oeste 0 -- -- 68
2019-06-05 12:00:00 6.4 22 Oeste 35 Oeste 0 -- -- 70
2019-06-05 11:00:00 5.3 22 Oeste 35 Oeste 0 -- -- 78
2019-06-05 10:00:00 5 17 Oeste 27 Oeste 0 -- -- 84
2019-06-05 09:00:00 4.3 14 Oeste 23 Oeste 0 -- -- 92
2019-06-05 08:00:00 2.1 10 Oeste 15 Oeste 0 -- -- 97
2019-06-05 07:00:00 1.7 8 Oeste 22 Noroeste 0 -- -- 98
2019-06-05 06:00:00 2.3 15 Oeste 19 Noroeste 0 -- -- 98
2019-06-05 05:00:00 2.8 13 Oeste 21 Oeste 0 -- -- 97
2019-06-05 04:00:00 3.7 9 Oeste 13 Oeste 0.2 -- -- 97
2019-06-05 03:00:00 3.9 5 Norte 23 Oeste 2.6 -- -- 97
2019-06-05 02:00:00 4.5 14 Oeste 21 Noroeste 1 -- -- 96
2019-06-05 01:00:00 5.1 9 Oeste 12 Oeste 0 -- -- 94
2019-06-05 00:00:00 5.9 6 Noroeste 13 Noroeste 0 -- -- 91
2019-06-04 23:00:00 7.2 4 Noroeste 20 Noroeste 0 -- -- 87
2019-06-04 22:00:00 9 5 Oeste 23 Oeste 0 -- -- 80
2019-06-04 21:00:00 10.2 17 Oeste 40 Oeste 0 -- -- 72
2019-06-04 20:00:00 11.7 24 Oeste 39 Oeste 0 -- -- 70
2019-06-04 19:00:00 14 25 Oeste 53 Oeste 0 -- -- 62
2019-06-04 18:00:00 14.7 33 Oeste 57 Oeste 0 -- -- 60
2019-06-04 17:00:00 14.8 22 Oeste 42 Oeste 0 -- -- 59
2019-06-04 16:00:00 13.9 18 Oeste 40 Oeste 0 -- -- 59
2019-06-04 15:00:00 15.8 20 Oeste 41 Oeste 0 -- -- 57
2019-06-04 14:00:00 14.8 21 Oeste 44 Sudoeste 0 -- -- 59
2019-06-04 13:00:00 13.6 21 Oeste 44 Oeste 0 -- -- 63
2019-06-04 12:00:00 12.4 30 Oeste 43 Oeste 0 -- -- 66
2019-06-04 11:00:00 11.3 27 Oeste 43 Oeste 0 -- -- 71
2019-06-04 10:00:00 11.3 13 Oeste 22 Noroeste 0 -- -- 77
2019-06-04 09:00:00 8.2 14 Oeste 28 Oeste 0 -- -- 96
2019-06-04 08:00:00 7.6 13 Oeste 23 Oeste 0 -- -- 96
2019-06-04 07:00:00 7.1 11 Oeste 18 Noroeste 0 -- -- 95
2019-06-04 06:00:00 7.5 8 Oeste 23 Noroeste 0 -- -- 91
2019-06-04 05:00:00 8.8 14 Noroeste 29 Oeste 0 -- -- 84
2019-06-04 04:00:00 11.3 19 Oeste 46 Oeste 0 -- -- 69
2019-06-04 03:00:00 13.3 23 Oeste 47 Oeste 0 -- -- 59
2019-06-04 02:00:00 14.1 27 Oeste 54 Oeste 0 -- -- 63
2019-06-04 01:00:00 14.9 33 Oeste 52 Oeste 0 -- -- 63
2019-06-04 00:00:00 14.9 22 Oeste 37 Oeste 0 -- -- 56
2019-06-03 23:00:00 15.7 28 Oeste 47 Oeste 0 -- -- 57
2019-06-03 22:00:00 16.4 27 Oeste 51 Oeste 0 -- -- 53
2019-06-03 21:00:00 17.7 30 Oeste 54 Sudoeste 0 -- -- 49
2019-06-03 20:00:00 19.3 36 Oeste 59 Oeste 0 -- -- 47
2019-06-03 19:00:00 20.5 33 Oeste 49 Sudoeste 0 -- -- 43
2019-06-03 18:00:00 21.4 29 Oeste 46 Oeste 0 -- -- 41
2019-06-03 17:00:00 21.3 21 Sudoeste 50 Oeste 0 -- -- 42
2019-06-03 16:00:00 20.7 22 Oeste 45 Oeste 0 -- -- 44
2019-06-03 15:00:00 21.4 27 Oeste 50 Sudoeste 0 -- -- 42
2019-06-03 14:00:00 20.3 32 Oeste 55 Oeste 0 -- -- 41
2019-06-03 13:00:00 19.4 19 Oeste 31 Oeste 0 -- -- 45
2019-06-03 12:00:00 18.4 19 Oeste 30 Oeste 0 -- -- 42
2019-06-03 11:00:00 16.7 18 Oeste 26 Oeste 0 -- -- 48
2019-06-03 10:00:00 16.9 7 Oeste 12 Noroeste 0 -- -- 50
2019-06-03 09:00:00 14.9 6 Oeste 9 Oeste 0 -- -- 49
2019-06-03 08:00:00 13.1 3 Oeste 9 Noroeste 0 -- -- 56
2019-06-03 07:00:00 12.6 9 Noroeste 13 Noroeste 0 -- -- 57
2019-06-03 06:00:00 12.9 9 Noroeste 18 Oeste 0 -- -- 55
2019-06-03 05:00:00 12.7 9 Sudeste 16 Sudeste 0 -- -- 56
2019-06-03 04:00:00 12.6 4 Nordeste 9 Este 0 -- -- 60
2019-06-03 03:00:00 12.7 3 Este 12 Sudoeste 0 -- -- 58
2019-06-03 02:00:00 14.4 8 Sudoeste 14 Oeste 0 -- -- 46
2019-06-03 01:00:00 15.8 6 Sudoeste 17 Oeste 0 -- -- 42
2019-06-03 00:00:00 16.6 9 Oeste 15 Oeste 0 -- -- 37
2019-06-02 23:00:00 16.5 8 Oeste 21 Oeste 0 -- -- 38
2019-06-02 22:00:00 17.3 11 Oeste 15 Oeste 0 -- -- 38
2019-06-02 21:00:00 18.4 8 Oeste 26 Oeste 0 -- -- 36
2019-06-02 20:00:00 19.3 21 Oeste 39 Oeste 0 -- -- 31
2019-06-02 19:00:00 20.9 24 Oeste 41 Sudoeste 0 -- -- 29
2019-06-02 18:00:00 20.8 24 Oeste 40 Oeste 0 -- -- 29
2019-06-02 17:00:00 22 23 Oeste 43 Oeste 0 -- -- 25
2019-06-02 16:00:00 21.4 23 Oeste 46 Oeste 0 -- -- 25
2019-06-02 15:00:00 22.3 25 Oeste 45 Oeste 0 -- -- 24
2019-06-02 14:00:00 20.4 26 Oeste 37 Oeste 0 -- -- 38
2019-06-02 13:00:00 21.3 25 Oeste 41 Oeste 0 -- -- 40
2019-06-02 12:00:00 21.3 19 Oeste 31 Oeste 0 -- -- 40
2019-06-02 11:00:00 21.2 4 Sudoeste 11 Oeste 0 -- -- 46
2019-06-02 10:00:00 18.1 4 Sudoeste 15 Sudoeste 0 -- -- 48
2019-06-02 09:00:00 17 8 Sudoeste 14 Sudoeste 0 -- -- 49
2019-06-02 08:00:00 16.8 3 Sudoeste 10 Este 0 -- -- 47
2019-06-02 07:00:00 14.8 9 Este 16 Este 0 -- -- 50
2019-06-02 06:00:00 13.6 10 Este 16 Este 0 -- -- 53
2019-06-02 05:00:00 14.8 12 Este 15 Este 0 -- -- 50
2019-06-02 04:00:00 14.4 10 Este 15 Este 0 -- -- 51
2019-06-02 03:00:00 15 13 Este 18 Este 0 -- -- 50
2019-06-02 02:00:00 15.9 15 Este 20 Este 0 -- -- 46
2019-06-02 01:00:00 15.7 13 Este 24 Este 0 -- -- 45
2019-06-02 00:00:00 17 15 Sudeste 28 Este 0 -- -- 41
2019-06-01 23:00:00 17.4 23 Este 28 Este 0 -- -- 41
2019-06-01 22:00:00 19.1 9 Este 18 Sudoeste 0 -- -- 38
2019-06-01 21:00:00 22.1 13 Oeste 25 Oeste 0 -- -- 29
2019-06-01 20:00:00 23.5 12 Oeste 30 Oeste 0 -- -- 27
2019-06-01 19:00:00 25.1 18 Oeste 38 Oeste 0 -- -- 25
2019-06-01 18:00:00 24.9 21 Oeste 36 Oeste 0 -- -- 25
2019-06-01 17:00:00 25.3 20 Oeste 39 Oeste 0 -- -- 25
2019-06-01 16:00:00 25.5 20 Oeste 39 Oeste 0 -- -- 27
2019-06-01 15:00:00 24.2 18 Oeste 43 Oeste 0 -- -- 32
2019-06-01 14:00:00 23.1 23 Oeste 42 Oeste 0 -- -- 30
2019-06-01 13:00:00 22.5 23 Oeste 35 Oeste 0 -- -- 30
2019-06-01 12:00:00 21.8 18 Oeste 30 Oeste 0 -- -- 30
2019-06-01 11:00:00 22.3 4 Oeste 8 Noroeste 0 -- -- 35
2019-06-01 10:00:00 22 2 Noroeste 6 Noroeste 0 -- -- 36
2019-06-01 09:00:00 20.1 2 Sudoeste 3 Sudoeste 0 -- -- 35
2019-06-01 08:00:00 18.5 0 Calma 5 Sur 0 -- -- 38
2019-06-01 07:00:00 15.3 0 Calma 4 Sur 0 -- -- 45
2019-06-01 06:00:00 15.1 0 Calma 8 Sur 0 -- -- 46
2019-06-01 05:00:00 14.7 3 Sudoeste 4 Sudoeste 0 -- -- 50
2019-06-01 04:00:00 15.3 2 Nordeste 5 Este 0 -- -- 47
2019-06-01 03:00:00 14.1 5 Este 6 Este 0 -- -- 51
2019-06-01 02:00:00 16 4 Este 8 Este 0 -- -- 46
2019-06-01 01:00:00 16.1 6 Sudoeste 10 Sudoeste 0 -- -- 45
2019-06-01 00:00:00 16.7 7 Este 12 Este 0 -- -- 44
2019-05-31 23:00:00 16.7 8 Este 13 Este 0 -- -- 43
2019-05-31 22:00:00 17.7 13 Este 18 Este 0 -- -- 43
2019-05-31 21:00:00 19.9 7 Sudeste 22 Este 0 -- -- 42
2019-05-31 20:00:00 20.9 9 Sudeste 25 Este 0 -- -- 39
2019-05-31 19:00:00 24.9 6 Sur 23 Este 0 -- -- 29
2019-05-31 18:00:00 25.3 6 Sur 22 Sudeste 0 -- -- 31
2019-05-31 17:00:00 25.5 9 Sudeste 21 Sudeste 0 -- -- 30
2019-05-31 16:00:00 25 4 Sudeste 19 Sur 0 -- -- 28
2019-05-31 15:00:00 23.5 7 Nordeste 18 Nordeste 0 -- -- 31
2019-05-31 14:00:00 23.6 7 Este 19 Sudoeste 0 -- -- 29
2019-05-31 13:00:00 23.7 3 Este 13 Sur 0 -- -- 26
2019-05-31 12:00:00 21.9 5 Sur 13 Nordeste 0 -- -- 30
2019-05-31 11:00:00 21.6 3 Este 9 Norte 0 -- -- 34
2019-05-31 10:00:00 20.9 0 Calma 5 Nordeste 0 -- -- 41
2019-05-31 09:00:00 19.7 0 Calma 6 Noroeste 0 -- -- 32
2019-05-31 08:00:00 15 6 Oeste 8 Oeste 0 -- -- 37
2019-05-31 07:00:00 12.6 0 Calma 3 Norte 0 -- -- 42
2019-05-31 06:00:00 13.1 5 Sur 9 Sur 0 -- -- 42
2019-05-31 05:00:00 13.7 0 Calma 6 Este 0 -- -- 40
2019-05-31 04:00:00 13.5 4 Nordeste 9 Este 0 -- -- 40
2019-05-31 03:00:00 13.9 10 Este 20 Este 0 -- -- 39
2019-05-31 02:00:00 12 17 Este 20 Este 0 -- -- 52
2019-05-31 01:00:00 12.7 9 Este 17 Este 0 -- -- 54
2019-05-31 00:00:00 13.8 13 Este 18 Sudeste 0 -- -- 51
2019-05-30 23:00:00 15.4 8 Este 16 Sudeste 0 -- -- 46
2019-05-30 22:00:00 15.5 11 Este 22 Este 0 -- -- 50
2019-05-30 21:00:00 17.1 14 Este 21 Este 0 -- -- 51
2019-05-30 20:00:00 18.6 6 Sudeste 18 Sudeste 0 -- -- 46
2019-05-30 19:00:00 18.5 8 Sudeste 22 Este 0 -- -- 49
2019-05-30 18:00:00 21.1 8 Sudeste 23 Sudeste 0 -- -- 41
2019-05-30 17:00:00 21.1 10 Este 25 Este 0 -- -- 44
2019-05-30 16:00:00 20.6 5 Este 24 Sudoeste 0 -- -- 41
2019-05-30 15:00:00 20.9 11 Sudoeste 21 Sudoeste 0 -- -- 44
2019-05-30 14:00:00 20.7 7 Sudoeste 21 Sudoeste 0 -- -- 42
2019-05-30 13:00:00 20.4 6 Sudeste 17 Este 0 -- -- 45
2019-05-30 12:00:00 19.9 7 Sudoeste 19 Sudoeste 0 -- -- 41
2019-05-30 11:00:00 19 6 Este 13 Este 0 -- -- 39
2019-05-30 10:00:00 16.1 5 Este 9 Este 0 -- -- 40
2019-05-30 09:00:00 15.1 3 Sudeste 6 Este 0 -- -- 37
2019-05-30 08:00:00 12.7 2 Sudoeste 5 Oeste 0 -- -- 41
2019-05-30 07:00:00 9.8 0 Calma 6 Sudoeste 0 -- -- 48
2019-05-30 06:00:00 8.9 5 Oeste 9 Noroeste 0 -- -- 64
2019-05-30 05:00:00 8.1 6 Norte 13 Noroeste 0 -- -- 70
2019-05-30 04:00:00 8.4 10 Noroeste 14 Noroeste 0 -- -- 74
2019-05-30 03:00:00 10.1 6 Noroeste 8 Noroeste 0 -- -- 63
2019-05-30 02:00:00 10 5 Oeste 11 Noroeste 0 -- -- 63
2019-05-30 01:00:00 9.6 7 Noroeste 13 Oeste 0 -- -- 74
2019-05-30 00:00:00 10.1 4 Oeste 8 Noroeste 0 -- -- 68
2019-05-29 23:00:00 11.3 4 Este 8 Este 0 -- -- 60
2019-05-29 22:00:00 12.3 2 Sudoeste 17 Este 0 -- -- 58
2019-05-29 21:00:00 14.9 6 Nordeste 22 Norte 0 -- -- 48
2019-05-29 20:00:00 17.1 10 Noroeste 19 Noroeste 0 -- -- 49
2019-05-29 19:00:00 20.3 9 Norte 23 Norte 0 -- -- 38
2019-05-29 18:00:00 19.1 12 Oeste 22 Oeste 0 -- -- 42
2019-05-29 17:00:00 17 12 Sudoeste 28 Sudoeste 0 -- -- 46
2019-05-29 16:00:00 18.2 5 Sudoeste 23 Este 0 -- -- 40
2019-05-29 15:00:00 18.2 9 Sur 30 Este 0 -- -- 39
2019-05-29 14:00:00 16.5 16 Este 33 Este 0 -- -- 44
2019-05-29 13:00:00 15.4 21 Este 29 Este 0 -- -- 49
2019-05-29 12:00:00 15.5 10 Este 26 Este 0 -- -- 50
2019-05-29 11:00:00 13.7 6 Nordeste 20 Este 0 -- -- 57
2019-05-29 10:00:00 10.6 4 Sudoeste 13 Este 0 -- -- 60
2019-05-29 09:00:00 6.8 5 Oeste 10 Oeste 0 -- -- 73
2019-05-29 08:00:00 5 6 Oeste 16 Oeste 0 -- -- 79
2019-05-29 07:00:00 2.3 10 Oeste 15 Oeste 0 -- -- 91
2019-05-29 06:00:00 2.6 6 Oeste 9 Noroeste 0 -- -- 88
2019-05-29 05:00:00 2.7 6 Oeste 10 Oeste 0 -- -- 87
2019-05-29 04:00:00 3.2 5 Oeste 11 Oeste 0 -- -- 82
2019-05-29 03:00:00 3.8 9 Oeste 14 Oeste 0 -- -- 78
2019-05-29 02:00:00 3.8 5 Oeste 9 Oeste 0 -- -- 78
2019-05-29 01:00:00 4.2 7 Oeste 18 Oeste 0 -- -- 75
2019-05-29 00:00:00 4.5 10 Oeste 18 Oeste 0 -- -- 75
2019-05-28 23:00:00 5.2 9 Noroeste 21 Oeste 0 -- -- 73
2019-05-28 22:00:00 6.1 15 Noroeste 20 Noroeste 0 -- -- 71
2019-05-28 21:00:00 9.4 8 Noroeste 23 Noroeste 0 -- -- 57
2019-05-28 20:00:00 11 9 Noroeste 26 Noroeste 0 -- -- 53
2019-05-28 19:00:00 13.5 18 Noroeste 38 Oeste 0 -- -- 50
2019-05-28 18:00:00 13.3 24 Oeste 41 Oeste 0 -- -- 49
2019-05-28 17:00:00 13.4 21 Oeste 42 Oeste 0 -- -- 49
2019-05-28 16:00:00 13.6 20 Oeste 34 Oeste 0 -- -- 50
2019-05-28 15:00:00 13.2 24 Oeste 42 Oeste 0 -- -- 49
2019-05-28 14:00:00 12.8 17 Oeste 32 Oeste 0 -- -- 49
2019-05-28 13:00:00 11.9 15 Oeste 31 Oeste 0 -- -- 51
2019-05-28 12:00:00 11.4 14 Oeste 25 Oeste 0 -- -- 54
2019-05-28 11:00:00 10.7 7 Oeste 17 Oeste 0 -- -- 52
2019-05-28 10:00:00 9.4 0 Calma 7 Sudoeste 0 -- -- 56
2019-05-28 09:00:00 6.1 2 Noroeste 7 Noroeste 0 -- -- 64
2019-05-28 08:00:00 4.3 2 Noroeste 14 Noroeste 0 -- -- 74
2019-05-28 07:00:00 2.1 8 Noroeste 12 Oeste 0 -- -- 84
2019-05-28 06:00:00 1.8 9 Noroeste 13 Oeste 0 -- -- 89
2019-05-28 05:00:00 2 8 Oeste 13 Noroeste 0 -- -- 90
2019-05-28 04:00:00 2.5 7 Oeste 10 Noroeste 0 -- -- 88
2019-05-28 03:00:00 3.1 0 Calma 6 Oeste 0 -- -- 85
2019-05-28 02:00:00 3.8 3 Oeste 5 Oeste 0 -- -- 81
2019-05-28 01:00:00 3.9 4 Oeste 11 Noroeste 0 -- -- 82
2019-05-28 00:00:00 5.1 7 Noroeste 18 Noroeste 0 -- -- 79
2019-05-27 23:00:00 5.9 9 Oeste 22 Oeste 0 -- -- 77
2019-05-27 22:00:00 6.6 18 Oeste 30 Noroeste 0 -- -- 77
2019-05-27 21:00:00 9.1 16 Oeste 32 Oeste 0 -- -- 68
2019-05-27 20:00:00 11.4 17 Oeste 35 Oeste 0 -- -- 60
2019-05-27 19:00:00 14.4 19 Oeste 35 Oeste 0 -- -- 56
2019-05-27 18:00:00 15.3 23 Oeste 41 Oeste 0 -- -- 53
2019-05-27 17:00:00 15.7 26 Oeste 42 Oeste 0 -- -- 50
2019-05-27 16:00:00 16.8 19 Noroeste 44 Oeste 0 -- -- 47
2019-05-27 15:00:00 16.2 30 Oeste 49 Oeste 0 -- -- 51
2019-05-27 14:00:00 16.1 15 Noroeste 39 Oeste 0 -- -- 47
2019-05-27 13:00:00 14.3 21 Oeste 36 Oeste 0 -- -- 62
2019-05-27 12:00:00 14.3 18 Oeste 31 Oeste 0 -- -- 64
2019-05-27 11:00:00 13.4 16 Oeste 27 Oeste 0 -- -- 66
2019-05-27 10:00:00 11.6 11 Oeste 17 Oeste 0 -- -- 70
2019-05-27 09:00:00 9.5 12 Oeste 15 Oeste 0 -- -- 74
2019-05-27 08:00:00 7.6 10 Noroeste 15 Oeste 0 -- -- 79
2019-05-27 07:00:00 7.1 14 Noroeste 17 Oeste 0 -- -- 78
2019-05-27 06:00:00 7.5 10 Oeste 16 Oeste 0 -- -- 75
2019-05-27 05:00:00 8 6 Oeste 18 Oeste 0 -- -- 71
2019-05-27 04:00:00 8 15 Oeste 22 Oeste 0 -- -- 68
2019-05-27 03:00:00 8.8 10 Oeste 18 Oeste 0 -- -- 65
2019-05-27 02:00:00 9.8 8 Oeste 18 Oeste 0 -- -- 61
2019-05-27 01:00:00 9.6 7 Oeste 23 Noroeste 0 -- -- 63
2019-05-27 00:00:00 9.7 16 Oeste 26 Oeste 0 -- -- 66
2019-05-26 23:00:00 11 19 Oeste 23 Oeste 0 -- -- 62
2019-05-26 22:00:00 11.6 18 Oeste 28 Oeste 0 -- -- 63
2019-05-26 21:00:00 13.8 22 Oeste 35 Oeste 0 -- -- 56
2019-05-26 20:00:00 16.8 17 Oeste 30 Oeste 0 -- -- 48
2019-05-26 19:00:00 20.2 14 Oeste 31 Oeste 0 -- -- 41
2019-05-26 18:00:00 21.4 17 Oeste 31 Oeste 0 -- -- 40
2019-05-26 17:00:00 21.5 14 Oeste 30 Sudoeste 0 -- -- 45
2019-05-26 16:00:00 20.2 13 Sudoeste 24 Sur 0 -- -- 47
2019-05-26 15:00:00 19.8 7 Sudoeste 27 Sudoeste 0 -- -- 50
2019-05-26 14:00:00 20.4 5 Sur 14 Sur 0 -- -- 46
2019-05-26 13:00:00 19 5 Sudoeste 15 Oeste 0 -- -- 45
2019-05-26 12:00:00 17.2 4 Sudoeste 16 Nordeste 0 -- -- 50
2019-05-26 11:00:00 15.5 4 Este 15 Este 0 -- -- 53
2019-05-26 10:00:00 12.4 4 Noroeste 16 Oeste 0 -- -- 57
2019-05-26 09:00:00 8.1 8 Noroeste 21 Oeste 0 -- -- 68
2019-05-26 08:00:00 7 14 Noroeste 20 Noroeste 0 -- -- 73
2019-05-26 07:00:00 5.8 9 Oeste 13 Noroeste 0 -- -- 80
2019-05-26 06:00:00 4.2 11 Oeste 21 Noroeste 0 -- -- 87
2019-05-26 05:00:00 4.8 8 Oeste 19 Oeste 0 -- -- 82
2019-05-26 04:00:00 5.5 10 Oeste 17 Noroeste 0 -- -- 77
2019-05-26 03:00:00 5.3 6 Oeste 17 Oeste 0 -- -- 81
2019-05-26 02:00:00 5.9 13 Oeste 23 Oeste 0 -- -- 80
2019-05-26 01:00:00 6.3 7 Oeste 17 Oeste 0 -- -- 78
2019-05-26 00:00:00 6.4 14 Oeste 25 Noroeste 0 -- -- 77
2019-05-25 23:00:00 7.3 9 Oeste 19 Norte 0 -- -- 72
2019-05-25 22:00:00 9.2 13 Norte 19 Norte 0 -- -- 63
2019-05-25 21:00:00 11.3 14 Noroeste 28 Norte 0 -- -- 58
2019-05-25 20:00:00 13.3 15 Norte 28 Norte 0 -- -- 51
2019-05-25 19:00:00 16.6 14 Oeste 34 Oeste 0 -- -- 46
2019-05-25 18:00:00 17.3 7 Sudeste 24 Sudoeste 0 -- -- 36
2019-05-25 17:00:00 17.5 7 Norte 24 Oeste 0 -- -- 48
2019-05-25 16:00:00 16.7 5 Oeste 22 Oeste 0 -- -- 47
2019-05-25 15:00:00 16 10 Sur 28 Sur 0 -- -- 44
2019-05-25 14:00:00 16.1 8 Sudoeste 19 Sur 0 -- -- 45
2019-05-25 13:00:00 15.6 6 Sur 19 Sudoeste 0 -- -- 41
2019-05-25 12:00:00 12.8 8 Sudoeste 19 Sudoeste 0 -- -- 48
2019-05-25 11:00:00 11.2 7 Sudoeste 17 Oeste 0 -- -- 54
2019-05-25 10:00:00 8.6 8 Sudoeste 15 Sudoeste 0 -- -- 55
2019-05-25 09:00:00 7.1 5 Sudoeste 12 Sur 0 -- -- 62
2019-05-25 08:00:00 4.8 8 Sudoeste 14 Sudoeste 0 -- -- 74
2019-05-25 07:00:00 3.5 9 Sudoeste 14 Sudoeste 0 -- -- 78
2019-05-25 06:00:00 4.1 10 Sudoeste 16 Sudoeste 0 -- -- 76
2019-05-25 05:00:00 5.9 4 Noroeste 24 Norte 0 -- -- 56
2019-05-25 04:00:00 5.6 14 Norte 27 Norte 0 -- -- 66
2019-05-25 03:00:00 4.3 10 Oeste 19 Noroeste 0 -- -- 81
2019-05-25 02:00:00 4.7 4 Sudoeste 15 Noroeste 0 -- -- 79
2019-05-25 01:00:00 4.6 9 Oeste 17 Oeste 0 -- -- 84
2019-05-25 00:00:00 5.3 10 Noroeste 23 Este 0 -- -- 82
2019-05-24 23:00:00 5.5 9 Sudeste 24 Sudeste 0 -- -- 80
2019-05-24 22:00:00 5.8 9 Este 22 Este 0 -- -- 77
2019-05-24 21:00:00 7.1 10 Este 29 Este 0 -- -- 69
2019-05-24 20:00:00 8 25 Nordeste 37 Nordeste 0 -- -- 59
2019-05-24 19:00:00 9.9 20 Este 39 Este 0 -- -- 51
2019-05-24 18:00:00 10.6 20 Este 38 Este 0 -- -- 50
2019-05-24 17:00:00 11.2 27 Este 37 Nordeste 0 -- -- 52
2019-05-24 16:00:00 11.5 26 Este 38 Este 0 -- -- 50
2019-05-24 15:00:00 11.8 27 Este 37 Este 0 -- -- 50
2019-05-24 14:00:00 12.1 21 Este 33 Este 0 -- -- 46
2019-05-24 13:00:00 11.8 9 Sudeste 28 Este 0 -- -- 51
2019-05-24 12:00:00 12 5 Sur 25 Sudoeste 0 -- -- 49
2019-05-24 11:00:00 9.3 4 Sudoeste 15 Oeste 0 -- -- 58
2019-05-24 10:00:00 6.9 5 Oeste 14 Noroeste 0 -- -- 63
2019-05-24 09:00:00 4.2 9 Noroeste 15 Noroeste 0 -- -- 71
2019-05-24 08:00:00 4 3 Noroeste 5 Noroeste 0 -- -- 76
2019-05-24 07:00:00 1.4 2 Norte 8 Oeste 0 -- -- 89
2019-05-24 06:00:00 1.7 8 Noroeste 11 Noroeste 0 -- -- 87
2019-05-24 05:00:00 2.2 5 Noroeste 12 Oeste 0 -- -- 87
2019-05-24 04:00:00 2.9 8 Oeste 25 Oeste 0 -- -- 85
2019-05-24 03:00:00 3.9 17 Oeste 23 Oeste 0 -- -- 82
2019-05-24 02:00:00 5.8 13 Oeste 20 Oeste 0 -- -- 75
2019-05-24 01:00:00 5.8 13 Oeste 25 Oeste 0 -- -- 82
2019-05-24 00:00:00 6.1 12 Oeste 21 Oeste 0 -- -- 86
2019-05-23 23:00:00 7.4 8 Noroeste 22 Norte 0 -- -- 85
2019-05-23 22:00:00 9.1 2 Norte 11 Este 0 -- -- 87
2019-05-23 21:00:00 10.1 3 Norte 27 Este 0 -- -- 83
2019-05-23 20:00:00 10.9 19 Este 27 Este 0 -- -- 79
2019-05-23 19:00:00 13.2 16 Sudeste 38 Este 0 -- -- 71
2019-05-23 18:00:00 15.5 11 Este 37 Oeste 0 -- -- 62
2019-05-23 17:00:00 18.1 21 Oeste 44 Oeste 0 -- -- 50
2019-05-23 16:00:00 16.8 17 Oeste 34 Oeste 0 -- -- 52
2019-05-23 15:00:00 16 17 Oeste 37 Oeste 0 -- -- 56
2019-05-23 14:00:00 16.1 10 Oeste 27 Oeste 0 -- -- 58
2019-05-23 13:00:00 15.7 12 Oeste 22 Oeste 0 -- -- 57
2019-05-23 12:00:00 15.9 4 Sudeste 11 Este 0 -- -- 56
2019-05-23 11:00:00 13.4 4 Sudeste 14 Sudeste 0 -- -- 58
2019-05-23 10:00:00 13.9 4 Sudeste 10 Sudeste 0 -- -- 57
2019-05-23 09:00:00 10.8 5 Sudeste 10 Este 0 -- -- 62
2019-05-23 08:00:00 9.9 6 Este 14 Este 0 -- -- 64
2019-05-23 07:00:00 9.2 7 Este 9 Este 0 -- -- 68
2019-05-23 06:00:00 10.6 4 Sur 8 Sur 0 -- -- 66
2019-05-23 05:00:00 10.1 0 Calma -- -- 0 -- -- 73
2019-05-23 04:00:00 9.9 4 Este 9 Sudeste 0 -- -- 75
2019-05-23 03:00:00 10.3 5 Sudeste 15 Este 0 -- -- 74
2019-05-23 02:00:00 10.7 14 Este 17 Este 0 -- -- 73
2019-05-23 01:00:00 10.5 15 Este 18 Este 0 -- -- 76
2019-05-23 00:00:00 10.6 15 Este 18 Este 0 -- -- 77
2019-05-22 23:00:00 11 13 Este 20 Este 0 -- -- 75
2019-05-22 22:00:00 12.4 16 Este 19 Este 0 -- -- 69
2019-05-22 21:00:00 15.1 11 Oeste 23 Oeste 0 -- -- 44
2019-05-22 20:00:00 16.9 15 Oeste 33 Oeste 0 -- -- 38
2019-05-22 19:00:00 17.3 21 Oeste 34 Oeste 0 -- -- 39
2019-05-22 18:00:00 19.5 15 Oeste 34 Oeste 0 -- -- 36
2019-05-22 17:00:00 19.1 21 Oeste 39 Oeste 0 -- -- 37
2019-05-22 16:00:00 19.4 15 Oeste 29 Oeste 0 -- -- 40
2019-05-22 15:00:00 18.2 18 Oeste 35 Oeste 0 -- -- 44
2019-05-22 14:00:00 16.9 19 Oeste 34 Oeste 0 -- -- 47
2019-05-22 13:00:00 15.9 20 Oeste 31 Oeste 0 -- -- 51
2019-05-22 12:00:00 14.9 15 Oeste 30 Oeste 0 -- -- 52
2019-05-22 11:00:00 13.5 15 Oeste 25 Oeste 0 -- -- 56
2019-05-22 10:00:00 11.1 9 Oeste 17 Oeste 0 -- -- 67
2019-05-22 09:00:00 9.9 9 Oeste 13 Oeste 0 -- -- 68
2019-05-22 08:00:00 8.9 9 Oeste 12 Oeste 0 -- -- 74
2019-05-22 07:00:00 6.8 9 Oeste 12 Oeste 0 -- -- 83
2019-05-22 06:00:00 7.3 9 Oeste 12 Noroeste 0 -- -- 82
2019-05-22 05:00:00 6.5 6 Noroeste 8 Noroeste 0 -- -- 85
2019-05-22 04:00:00 6.4 2 Norte 3 Nordeste 0 -- -- 86
2019-05-22 03:00:00 6.4 0 Calma 6 Este 0 -- -- 87
2019-05-22 02:00:00 6.3 3 Este 10 Este 0 -- -- 89
2019-05-22 01:00:00 6.8 6 Este 12 Este 0 -- -- 88
2019-05-22 00:00:00 7 10 Este 18 Este 0 -- -- 87